RJTQ(METAR)
02/18 15:00
RJTQ 180600Z 22010KT CAVOK 14/03 Q1022 RMK A3020=
戻る
トップページへ戻る
IMOC Co,.Ltd.